Time;durP1;ratioP1;P1;durP2;ratioP2;P2;SDS_P1;SDS_P2;PMS_P1;PMS_P2;Temp;Humidity;BMP_temperature;BMP_pressure;BME280_temperature;BME280_humidity;BME280_pressure;Samples;Min_cycle;Max_cycle;Signal;HPM_P1;HPM_P2
2024/03/31 00:01:04;;;;;;;24.05;11.38;;;;;;;;;;5018203;28;20018;-64
2024/03/31 00:03:30;;;;;;;22.30;10.68;;;;;;;;;;5016690;28;20061;-64
2024/03/31 00:05:56;;;;;;;23.65;10.60;;;;;;;;;;5018171;28;20391;-64
2024/03/31 00:08:22;;;;;;;24.75;11.82;;;;;;;;;;5023179;28;20401;-64
2024/03/31 00:10:48;;;;;;;26.20;12.20;;;;;;;;;;5012874;28;20430;-65
2024/03/31 00:13:14;;;;;;;25.63;11.70;;;;;;;;;;5016505;28;20077;-64
2024/03/31 00:15:40;;;;;;;25.15;12.00;;;;;;;;;;5018010;28;20108;-64
2024/03/31 00:18:06;;;;;;;22.83;11.95;;;;;;;;;;5020056;28;20139;-64
2024/03/31 00:20:32;;;;;;;21.60;12.70;;;;;;;;;;5013695;28;20017;-64
2024/03/31 00:22:58;;;;;;;24.50;13.63;;;;;;;;;;5021210;28;20108;-65
2024/03/31 00:25:24;;;;;;;25.92;14.18;;;;;;;;;;5011334;28;20155;-64
2024/03/31 00:27:49;;;;;;;29.23;15.15;;;;;;;;;;5018088;28;20033;-64
2024/03/31 00:30:15;;;;;;;23.15;14.15;;;;;;;;;;5020561;28;20033;-64
2024/03/31 00:32:41;;;;;;;23.08;12.40;;;;;;;;;;5028987;28;20033;-65
2024/03/31 00:35:07;;;;;;;23.55;13.73;;;;;;;;;;5022111;28;20120;-65
2024/03/31 00:37:33;;;;;;;22.30;13.02;;;;;;;;;;5019181;28;20107;-64
2024/03/31 00:39:59;;;;;;;27.92;14.25;;;;;;;;;;5012785;28;20110;-65
2024/03/31 00:42:25;;;;;;;24.10;13.57;;;;;;;;;;5019811;28;20594;-65
2024/03/31 00:44:51;;;;;;;26.35;13.35;;;;;;;;;;5019910;28;20172;-64
2024/03/31 00:47:17;;;;;;;24.95;14.13;;;;;;;;;;5012482;28;20037;-64
2024/03/31 00:49:43;;;;;;;21.95;12.48;;;;;;;;;;5012618;28;20045;-65
2024/03/31 00:52:08;;;;;;;23.33;12.88;;;;;;;;;;5018748;28;20025;-65
2024/03/31 00:54:38;;;;;;;24.02;14.15;;;;;;;;;;5021803;28;20109;-64
2024/03/31 00:57:04;;;;;;;25.67;14.40;;;;;;;;;;5013373;28;20026;-65
2024/03/31 00:59:30;;;;;;;31.00;15.73;;;;;;;;;;5013290;28;20048;-64
2024/03/31 01:01:55;;;;;;;30.17;16.65;;;;;;;;;;5015190;28;20132;-65
2024/03/31 01:04:21;;;;;;;30.33;16.17;;;;;;;;;;5020982;28;20078;-65
2024/03/31 01:06:47;;;;;;;26.45;15.07;;;;;;;;;;5018567;28;20037;-65
2024/03/31 01:09:13;;;;;;;29.55;17.05;;;;;;;;;;5014071;28;20490;-66
2024/03/31 01:11:39;;;;;;;31.83;16.20;;;;;;;;;;5021406;28;20025;-65
2024/03/31 01:14:05;;;;;;;27.50;16.48;;;;;;;;;;5018563;28;20040;-64
2024/03/31 01:16:31;;;;;;;28.98;16.85;;;;;;;;;;5022267;28;20061;-64
2024/03/31 01:18:57;;;;;;;31.98;17.20;;;;;;;;;;5009454;28;20113;-64
2024/03/31 01:21:24;;;;;;;27.58;17.35;;;;;;;;;;5024113;28;20423;-66
2024/03/31 01:23:55;;;;;;;31.67;16.25;;;;;;;;;;5022684;28;20412;-65
2024/03/31 01:26:21;;;;;;;30.85;16.83;;;;;;;;;;5020284;28;20123;-66
2024/03/31 01:28:47;;;;;;;36.22;17.90;;;;;;;;;;5018362;28;20478;-64
2024/03/31 01:31:13;;;;;;;35.10;17.52;;;;;;;;;;5010572;28;20109;-64
2024/03/31 01:33:39;;;;;;;29.60;17.42;;;;;;;;;;5018594;28;20045;-64
2024/03/31 01:36:05;;;;;;;34.83;18.60;;;;;;;;;;5018742;28;20147;-64
2024/03/31 01:38:30;;;;;;;31.98;18.25;;;;;;;;;;5017003;28;20088;-64
2024/03/31 01:40:56;;;;;;;25.55;16.38;;;;;;;;;;5014333;28;20113;-64
2024/03/31 01:43:22;;;;;;;23.90;14.25;;;;;;;;;;5011421;28;20052;-64
2024/03/31 01:45:48;;;;;;;25.92;14.98;;;;;;;;;;5019731;28;20113;-64
2024/03/31 01:48:14;;;;;;;25.58;14.95;;;;;;;;;;5015296;28;20041;-64
2024/03/31 01:50:40;;;;;;;25.55;13.98;;;;;;;;;;5013881;28;20157;-64
2024/03/31 01:53:06;;;;;;;23.40;13.13;;;;;;;;;;5014165;28;20114;-64
2024/03/31 01:55:32;;;;;;;27.42;14.77;;;;;;;;;;5019169;28;20108;-64
2024/03/31 01:57:58;;;;;;;22.48;13.63;;;;;;;;;;5013487;28;20060;-64
2024/03/31 02:00:24;;;;;;;28.65;15.25;;;;;;;;;;5025449;28;20017;-64
2024/03/31 02:02:50;;;;;;;25.23;14.15;;;;;;;;;;5019476;28;20045;-64
2024/03/31 02:05:16;;;;;;;23.92;13.88;;;;;;;;;;5021616;28;20102;-64
2024/03/31 02:07:42;;;;;;;26.88;15.48;;;;;;;;;;5026297;28;20034;-65
2024/03/31 02:10:10;;;;;;;30.55;15.80;;;;;;;;;;5022612;28;20184;-65
2024/03/31 02:12:35;;;;;;;26.90;16.00;;;;;;;;;;5013998;28;20022;-65
2024/03/31 02:15:01;;;;;;;26.75;14.82;;;;;;;;;;5025301;28;20084;-65
2024/03/31 02:17:27;;;;;;;26.92;16.17;;;;;;;;;;5023221;28;20046;-64
2024/03/31 02:19:53;;;;;;;31.17;16.10;;;;;;;;;;5018571;28;20022;-64
2024/03/31 02:22:19;;;;;;;31.60;16.83;;;;;;;;;;5019518;28;20092;-64
2024/03/31 02:24:45;;;;;;;25.67;14.88;;;;;;;;;;5017126;28;20066;-64
2024/03/31 02:27:12;;;;;;;26.40;16.75;;;;;;;;;;5024432;28;20208;-65
2024/03/31 02:29:38;;;;;;;29.65;14.82;;;;;;;;;;5016961;28;20457;-65
2024/03/31 02:32:04;;;;;;;25.35;14.25;;;;;;;;;;5021774;28;20105;-65
2024/03/31 02:34:30;;;;;;;25.42;15.30;;;;;;;;;;5025931;28;20039;-64
2024/03/31 02:36:56;;;;;;;23.55;14.25;;;;;;;;;;5017022;28;20113;-65
2024/03/31 02:39:21;;;;;;;26.17;14.02;;;;;;;;;;5014481;28;20032;-64
2024/03/31 02:41:47;;;;;;;23.83;14.05;;;;;;;;;;5010079;28;20030;-65
2024/03/31 02:44:13;;;;;;;25.88;14.65;;;;;;;;;;5017263;28;20430;-64
2024/03/31 02:46:39;;;;;;;21.45;12.40;;;;;;;;;;5016444;28;20041;-65
2024/03/31 02:49:06;;;;;;;21.48;13.00;;;;;;;;;;5017549;28;20068;-64
2024/03/31 02:51:31;;;;;;;21.77;13.23;;;;;;;;;;5024602;28;20118;-65
2024/03/31 02:53:57;;;;;;;22.25;12.13;;;;;;;;;;5017514;28;20409;-64
2024/03/31 02:56:23;;;;;;;19.10;10.63;;;;;;;;;;5011601;28;20030;-65
2024/03/31 02:58:49;;;;;;;18.23;10.52;;;;;;;;;;5017103;28;20045;-65
2024/03/31 03:01:15;;;;;;;17.73;11.48;;;;;;;;;;5021838;28;20029;-64
2024/03/31 03:03:43;;;;;;;17.33;10.77;;;;;;;;;;5017471;28;20108;-65
2024/03/31 03:06:09;;;;;;;16.65;9.95;;;;;;;;;;5012400;28;20084;-64
2024/03/31 03:08:35;;;;;;;21.10;10.63;;;;;;;;;;5012160;28;20137;-64
2024/03/31 03:11:03;;;;;;;19.45;10.75;;;;;;;;;;5012981;28;20959;-64
2024/03/31 03:13:29;;;;;;;16.40;9.70;;;;;;;;;;5013907;28;20037;-65
2024/03/31 03:15:55;;;;;;;15.60;8.75;;;;;;;;;;5020469;28;20029;-64
2024/03/31 03:18:21;;;;;;;15.00;9.35;;;;;;;;;;5018026;28;20052;-64
2024/03/31 03:20:47;;;;;;;15.73;8.88;;;;;;;;;;5015479;28;20128;-65
2024/03/31 03:23:13;;;;;;;13.80;7.80;;;;;;;;;;5016563;28;20526;-65
2024/03/31 03:25:39;;;;;;;13.82;8.20;;;;;;;;;;5021217;28;20035;-64
2024/03/31 03:28:05;;;;;;;14.35;7.88;;;;;;;;;;5006432;28;20378;-64
2024/03/31 03:30:31;;;;;;;13.25;8.05;;;;;;;;;;5007807;28;20449;-65
2024/03/31 03:32:57;;;;;;;13.30;6.95;;;;;;;;;;5024011;28;20021;-65
2024/03/31 03:35:23;;;;;;;11.43;6.28;;;;;;;;;;5011234;28;20056;-65
2024/03/31 03:37:49;;;;;;;11.77;5.38;;;;;;;;;;5008658;28;20416;-64
2024/03/31 03:40:15;;;;;;;8.73;4.65;;;;;;;;;;5016018;28;20045;-66
2024/03/31 03:42:41;;;;;;;10.63;5.07;;;;;;;;;;5009557;28;20041;-64
2024/03/31 03:45:10;;;;;;;8.57;5.13;;;;;;;;;;5008972;28;20482;-64
2024/03/31 03:47:36;;;;;;;8.68;5.28;;;;;;;;;;5018963;28;20122;-65
2024/03/31 03:50:03;;;;;;;7.63;3.70;;;;;;;;;;5014521;28;20033;-65
2024/03/31 03:52:29;;;;;;;7.30;4.07;;;;;;;;;;5014248;28;20041;-65
2024/03/31 03:54:54;;;;;;;8.38;4.63;;;;;;;;;;5021544;28;20047;-64
2024/03/31 03:57:20;;;;;;;8.23;4.18;;;;;;;;;;5023269;28;20029;-64
2024/03/31 03:59:46;;;;;;;9.25;4.45;;;;;;;;;;5012580;28;20060;-64
2024/03/31 04:02:12;;;;;;;7.35;4.03;;;;;;;;;;5008011;28;20088;-65
2024/03/31 04:04:38;;;;;;;8.05;4.57;;;;;;;;;;5014226;28;20029;-64
2024/03/31 04:07:04;;;;;;;8.70;3.95;;;;;;;;;;5015267;28;20531;-64
2024/03/31 04:09:30;;;;;;;8.20;4.32;;;;;;;;;;5005192;28;20168;-64
2024/03/31 04:11:56;;;;;;;8.95;4.53;;;;;;;;;;5015668;28;20033;-65
2024/03/31 04:14:22;;;;;;;9.38;4.68;;;;;;;;;;5020252;28;20078;-65
2024/03/31 04:16:48;;;;;;;8.50;4.78;;;;;;;;;;5017920;28;20085;-65
2024/03/31 04:19:14;;;;;;;7.35;4.25;;;;;;;;;;5010490;28;20316;-64
2024/03/31 04:21:39;;;;;;;7.90;4.35;;;;;;;;;;5006409;28;20034;-64
2024/03/31 04:24:05;;;;;;;7.38;4.25;;;;;;;;;;5018276;28;20124;-65
2024/03/31 04:26:32;;;;;;;9.82;4.80;;;;;;;;;;5013346;28;20033;-65
2024/03/31 04:28:58;;;;;;;11.50;4.20;;;;;;;;;;5016839;28;20062;-63
2024/03/31 04:31:24;;;;;;;10.52;4.60;;;;;;;;;;5012285;28;20574;-63
2024/03/31 04:33:50;;;;;;;7.32;4.20;;;;;;;;;;5007490;28;20034;-63
2024/03/31 04:36:16;;;;;;;8.35;4.15;;;;;;;;;;5020191;28;20025;-64
2024/03/31 04:38:42;;;;;;;10.10;4.95;;;;;;;;;;5016134;28;20029;-63
2024/03/31 04:41:08;;;;;;;7.38;4.47;;;;;;;;;;5012948;28;20025;-64
2024/03/31 04:43:34;;;;;;;7.28;3.95;;;;;;;;;;5014374;28;20105;-63
2024/03/31 04:46:04;;;;;;;7.88;4.38;;;;;;;;;;5021548;28;20060;-64
2024/03/31 04:48:30;;;;;;;7.93;4.45;;;;;;;;;;5012312;28;20033;-63
2024/03/31 04:50:56;;;;;;;8.50;4.80;;;;;;;;;;5019281;28;20032;-63
2024/03/31 04:53:22;;;;;;;9.77;4.82;;;;;;;;;;5016014;28;20104;-63
2024/03/31 04:55:48;;;;;;;7.20;4.05;;;;;;;;;;5017987;28;20086;-63
2024/03/31 04:58:14;;;;;;;8.27;4.35;;;;;;;;;;5014197;28;20611;-63
2024/03/31 05:00:40;;;;;;;8.60;4.95;;;;;;;;;;5009371;28;20069;-62
2024/03/31 05:03:06;;;;;;;9.55;4.28;;;;;;;;;;5025700;28;20049;-63
2024/03/31 05:05:36;;;;;;;10.27;4.90;;;;;;;;;;5016256;28;20110;-63
2024/03/31 05:08:02;;;;;;;9.80;5.17;;;;;;;;;;5013464;28;20121;-63
2024/03/31 05:10:28;;;;;;;8.93;5.10;;;;;;;;;;5008048;28;20336;-63
2024/03/31 05:12:56;;;;;;;10.43;5.32;;;;;;;;;;5004186;28;20108;-63
2024/03/31 05:15:22;;;;;;;9.55;5.60;;;;;;;;;;5020652;28;20037;-63
2024/03/31 05:17:48;;;;;;;10.50;5.53;;;;;;;;;;5012101;28;20119;-63
2024/03/31 05:20:14;;;;;;;8.88;4.50;;;;;;;;;;5018889;28;20455;-63
2024/03/31 05:22:40;;;;;;;12.02;5.85;;;;;;;;;;5018707;28;20084;-63
2024/03/31 05:25:06;;;;;;;10.43;5.78;;;;;;;;;;5011971;28;20163;-63
2024/03/31 05:27:31;;;;;;;9.38;5.45;;;15.50;58.10;;;;;;5012188;28;20078;-64
2024/03/31 05:29:57;;;;;;;8.73;4.88;;;8.00;97.90;;;;;;5012250;28;20045;-62
2024/03/31 05:32:22;;;;;;;9.60;5.18;;;8.00;97.80;;;;;;5021973;28;20026;-63
2024/03/31 05:34:47;;;;;;;10.07;5.55;;;8.00;97.80;;;;;;5013493;28;20041;-63
2024/03/31 05:37:13;;;;;;;10.95;5.63;;;8.00;97.80;;;;;;5010597;28;20065;-63
2024/03/31 05:39:38;;;;;;;10.95;5.82;;;7.90;97.60;;;;;;5011700;28;20086;-63
2024/03/31 05:42:04;;;;;;;9.35;5.03;;;7.90;97.70;;;;;;5015300;28;20533;-63
2024/03/31 05:44:30;;;;;;;8.10;4.90;;;8.00;97.70;;;;;;5020653;28;20037;-63
2024/03/31 05:46:55;;;;;;;12.55;6.68;;;7.90;97.70;;;;;;5022364;28;20478;-63
2024/03/31 05:49:20;;;;;;;11.57;6.07;;;7.90;97.70;;;;;;5019921;28;20148;-63
2024/03/31 05:51:46;;;;;;;11.30;5.68;;;7.80;97.70;;;;;;5018422;28;20054;-63
2024/03/31 05:54:12;;;;;;;13.68;6.20;;;7.80;97.70;;;;;;5017128;28;20041;-63
2024/03/31 05:56:37;;;;;;;9.82;5.60;;;7.80;97.70;;;;;;5014772;28;20454;-62
2024/03/31 05:59:03;;;;;;;10.85;5.57;;;7.80;97.80;;;;;;5016788;28;20034;-63
2024/03/31 06:01:28;;;;;;;12.32;6.68;;;7.90;97.70;;;;;;5016329;28;20165;-63
2024/03/31 06:03:54;;;;;;;13.32;6.40;;;7.80;97.70;;;;;;5021986;28;20076;-63
2024/03/31 06:06:19;;;;;;;12.77;6.65;;;7.90;97.70;;;;;;5014379;28;20067;-63
2024/03/31 06:08:45;;;;;;;16.50;6.70;;;7.80;97.70;;;;;;5020624;28;20049;-63
2024/03/31 06:11:10;;;;;;;14.30;6.88;;;7.90;97.70;;;;;;5014407;28;20482;-64
2024/03/31 06:13:36;;;;;;;12.95;6.68;;;7.90;97.70;;;;;;5016435;28;20426;-63
2024/03/31 06:16:02;;;;;;;9.30;5.28;;;7.90;97.70;;;;;;5013633;28;20042;-63
2024/03/31 06:18:27;;;;;;;15.68;7.28;;;8.00;97.60;;;;;;5020618;28;20040;-64
2024/03/31 06:20:53;;;;;;;11.50;6.05;;;7.90;97.60;;;;;;5016535;28;20037;-63
2024/03/31 06:23:18;;;;;;;11.60;6.60;;;7.90;97.60;;;;;;5024537;28;20017;-63
2024/03/31 06:25:44;;;;;;;11.20;5.82;;;8.00;97.50;;;;;;5008268;28;20033;-62
2024/03/31 06:28:09;;;;;;;9.88;5.57;;;7.90;97.50;;;;;;5019140;28;20064;-62
2024/03/31 06:30:35;;;;;;;10.25;5.85;;;7.90;97.50;;;;;;5014581;28;20038;-62
2024/03/31 06:33:00;;;;;;;10.23;5.35;;;7.90;97.60;;;;;;5023019;28;20073;-63
2024/03/31 06:35:26;;;;;;;9.55;5.95;;;8.00;97.60;;;;;;5011397;28;20137;-64
2024/03/31 06:37:51;;;;;;;9.95;5.07;;;7.90;97.60;;;;;;5022701;28;20052;-64
2024/03/31 06:40:17;;;;;;;10.68;5.45;;;8.00;97.60;;;;;;5017797;28;20072;-63
2024/03/31 06:42:42;;;;;;;9.40;5.15;;;7.90;97.70;;;;;;5017293;28;20037;-63
2024/03/31 06:45:08;;;;;;;9.93;5.00;;;7.90;97.70;;;;;;5011193;28;20061;-63
2024/03/31 06:47:34;;;;;;;10.57;5.13;;;;;;;;;;5026546;28;20098;-62
2024/03/31 06:49:59;;;;;;;9.52;5.43;;;8.00;97.90;;;;;;5023681;28;20511;-63
2024/03/31 06:52:25;;;;;;;11.32;5.97;;;8.00;98.10;;;;;;5012102;28;20037;-63
2024/03/31 06:54:51;;;;;;;9.32;5.07;;;;;;;;;;5014658;28;20462;-62
2024/03/31 06:57:17;;;;;;;10.43;5.65;;;;;;;;;;5011428;28;20112;-63
2024/03/31 06:59:42;;;;;;;10.13;5.32;;;8.10;98.20;;;;;;5016824;28;20049;-63
2024/03/31 07:02:07;;;;;;;9.05;4.97;;;8.00;98.30;;;;;;5027880;28;20045;-63
2024/03/31 07:04:33;;;;;;;12.52;6.05;;;;;;;;;;5023846;28;20045;-62
2024/03/31 07:06:59;;;;;;;10.48;5.57;;;;;;;;;;5010048;28;20440;-63
2024/03/31 07:09:25;;;;;;;11.63;6.10;;;;;;;;;;5007427;28;20034;-62
2024/03/31 07:11:51;;;;;;;11.02;6.13;;;;;;;;;;5012716;28;20202;-64
2024/03/31 07:14:17;;;;;;;10.02;6.18;;;;;;;;;;5013663;28;20026;-63
2024/03/31 07:16:43;;;;;;;11.05;5.82;;;;;;;;;;5015722;28;20124;-63
2024/03/31 07:19:09;;;;;;;10.43;5.25;;;;;;;;;;5027253;28;20037;-63
2024/03/31 07:21:35;;;;;;;10.48;5.35;;;;;;;;;;5013116;28;20033;-62
2024/03/31 07:24:01;;;;;;;9.98;5.20;;;;;;;;;;5012270;28;20121;-63
2024/03/31 07:26:27;;;;;;;9.23;4.47;;;;;;;;;;5017297;28;20428;-63
2024/03/31 07:28:54;;;;;;;10.32;5.35;;;;;;;;;;5010940;28;20026;-63
2024/03/31 07:31:20;;;;;;;10.18;4.90;;;;;;;;;;5012581;28;20037;-63
2024/03/31 07:33:46;;;;;;;13.85;6.53;;;;;;;;;;5011471;28;20552;-63
2024/03/31 07:36:12;;;;;;;11.75;5.88;;;;;;;;;;5016791;28;20017;-64
2024/03/31 07:38:38;;;;;;;11.30;6.18;;;;;;;;;;5012709;28;20053;-63
2024/03/31 07:41:04;;;;;;;11.05;5.22;;;;;;;;;;5016521;28;20104;-64
2024/03/31 07:43:30;;;;;;;10.52;5.30;;;;;;;;;;5008899;28;20451;-63
2024/03/31 07:45:56;;;;;;;9.68;5.00;;;;;;;;;;5013718;28;20028;-63
2024/03/31 07:48:21;;;;;;;12.27;6.03;;;;;;;;;;5014345;28;20049;-63
2024/03/31 07:50:47;;;;;;;9.90;5.38;;;;;;;;;;5013910;28;20042;-63
2024/03/31 07:53:13;;;;;;;11.90;5.85;;;;;;;;;;5009918;28;20090;-63
2024/03/31 07:55:39;;;;;;;10.90;5.50;;;;;;;;;;5012198;28;20038;-62
2024/03/31 07:58:05;;;;;;;11.32;5.93;;;;;;;;;;5009441;28;20114;-63
2024/03/31 08:00:31;;;;;;;13.15;6.10;;;;;;;;;;5012812;28;20030;-64
2024/03/31 08:02:57;;;;;;;11.80;6.35;;;;;;;;;;5007329;28;20712;-63
2024/03/31 08:05:23;;;;;;;12.57;6.75;;;;;;;;;;5011078;28;20454;-63
2024/03/31 08:07:49;;;;;;;13.02;6.90;;;;;;;;;;5014561;28;20130;-63
2024/03/31 08:10:15;;;;;;;13.02;6.38;;;;;;;;;;5015293;28;20485;-63
2024/03/31 08:12:41;;;;;;;12.70;6.55;;;;;;;;;;5007237;28;20104;-63
2024/03/31 08:15:07;;;;;;;14.55;6.20;;;;;;;;;;5018253;28;20052;-63
2024/03/31 08:17:33;;;;;;;15.25;7.65;;;;;;;;;;5010133;28;20144;-63
2024/03/31 08:19:59;;;;;;;11.93;5.80;;;;;;;;;;5012418;28;20121;-63
2024/03/31 08:22:24;;;;;;;12.68;7.07;;;;;;;;;;5014493;28;20026;-63
2024/03/31 08:24:50;;;;;;;12.52;6.45;;;;;;;;;;5019477;28;20038;-63
2024/03/31 08:27:16;;;;;;;15.65;7.30;;;;;;;;;;5012693;28;20133;-64
2024/03/31 08:29:42;;;;;;;11.48;6.53;;;;;;;;;;5012556;28;20438;-64
2024/03/31 08:32:08;;;;;;;14.07;7.32;;;;;;;;;;5015553;28;20144;-63
2024/03/31 08:34:34;;;;;;;14.27;7.18;;;;;;;;;;5014847;28;20025;-63
2024/03/31 08:37:00;;;;;;;13.00;6.68;;;;;;;;;;5022230;28;20041;-63
2024/03/31 08:39:26;;;;;;;10.95;5.72;;;;;;;;;;5013692;28;20096;-63
2024/03/31 08:41:57;;;;;;;14.30;7.68;;;;;;;;;;5010629;28;20030;-63
2024/03/31 08:44:24;;;;;;;12.38;6.13;;;;;;;;;;5007168;28;20022;-63
2024/03/31 08:46:50;;;;;;;14.20;7.30;;;;;;;;;;5015513;28;20482;-63
2024/03/31 08:49:16;;;;;;;14.88;6.90;;;;;;;;;;5016373;28;20093;-63
2024/03/31 08:51:42;;;;;;;14.65;7.05;;;;;;;;;;5011107;28;20120;-64
2024/03/31 08:54:08;;;;;;;13.75;6.53;;;;;;;;;;5022499;28;20037;-63
2024/03/31 08:56:34;;;;;;;11.70;6.18;;;;;;;;;;5017509;28;20057;-65
2024/03/31 08:59:01;;;;;;;11.65;5.82;;;;;;;;;;5016738;28;20056;-64
2024/03/31 09:01:27;;;;;;;11.40;5.60;;;;;;;;;;5016070;28;20525;-63
2024/03/31 09:03:54;;;;;;;11.65;5.60;;;;;;;;;;5017936;28;20046;-65
2024/03/31 09:06:20;;;;;;;11.57;5.85;;;;;;;;;;5009947;28;20034;-66
2024/03/31 09:08:46;;;;;;;9.82;6.05;;;;;;;;;;5012340;28;20048;-64
2024/03/31 09:11:12;;;;;;;15.10;6.97;;;;;;;;;;5013588;28;20037;-64
2024/03/31 09:13:38;;;;;;;10.02;4.82;;;;;;;;;;5011566;28;20053;-63
2024/03/31 09:16:06;;;;;;;12.32;5.80;;;;;;;;;;5021214;28;20022;-63
2024/03/31 09:18:32;;;;;;;10.65;5.95;;;;;;;;;;5021171;28;20078;-63
2024/03/31 09:20:58;;;;;;;11.55;6.15;;;;;;;;;;5019481;28;20102;-64
2024/03/31 09:23:23;;;;;;;12.35;6.25;;;;;;;;;;5019782;28;20022;-64
2024/03/31 09:25:50;;;;;;;11.88;5.95;;;;;;;;;;5017139;28;20040;-63
2024/03/31 09:28:17;;;;;;;10.77;5.20;;;;;;;;;;5020893;28;20041;-63
2024/03/31 09:30:42;;;;;;;10.98;5.38;;;;;;;;;;5022434;28;20065;-63
2024/03/31 09:33:09;;;;;;;12.52;5.82;;;;;;;;;;5018299;28;20452;-63
2024/03/31 09:35:35;;;;;;;11.05;6.32;;;;;;;;;;5018189;28;20025;-63
2024/03/31 09:38:00;;;;;;;12.20;6.43;;;;;;;;;;5019025;28;20423;-63
2024/03/31 09:40:26;;;;;;;13.32;7.05;;;;;;;;;;5018505;28;20029;-65
2024/03/31 09:42:52;;;;;;;11.35;6.07;;;;;;;;;;5021541;28;20136;-64
2024/03/31 09:45:19;;;;;;;10.68;5.97;;;;;;;;;;5019752;28;20484;-65
2024/03/31 09:47:48;;;;;;;14.55;6.57;;;;;;;;;;5021075;28;20022;-64
2024/03/31 09:50:20;;;;;;;11.07;6.35;;;;;;;;;;5020486;28;20026;-64
2024/03/31 09:52:50;;;;;;;13.63;6.60;;;;;;;;;;5014861;28;20120;-63
2024/03/31 09:55:19;;;;;;;12.90;7.40;;;;;;;;;;5014753;28;20038;-64
2024/03/31 09:57:48;;;;;;;11.73;6.22;;;;;;;;;;5014346;28;20113;-63
2024/03/31 10:00:15;;;;;;;14.20;6.97;;;;;;;;;;5022263;28;20030;-63
2024/03/31 10:02:54;;;;;;;11.57;6.13;;;;;;;;;;5026558;28;20438;-64
2024/03/31 10:05:28;;;;;;;13.32;6.90;;;;;;;;;;5019126;28;20021;-63
2024/03/31 10:07:54;;;;;;;13.05;6.70;;;;;;;;;;5016563;28;20387;-64
2024/03/31 10:10:22;;;;;;;13.20;6.13;;;;;;;;;;5016094;28;20311;-63
2024/03/31 10:12:49;;;;;;;11.07;6.07;;;;;;;;;;5012942;28;20485;-63
2024/03/31 10:15:16;;;;;;;10.60;6.25;;;;;;;;;;5025543;28;20036;-63
2024/03/31 10:17:42;;;;;;;11.95;5.90;;;;;;;;;;5012488;28;20120;-64
2024/03/31 10:20:09;;;;;;;10.82;5.82;;;;;;;;;;5011550;28;20034;-63
2024/03/31 10:22:37;;;;;;;9.93;5.05;;;;;;;;;;5018070;28;20046;-63
2024/03/31 10:25:03;;;;;;;10.80;5.45;;;;;;;;;;5020214;28;20081;-63
2024/03/31 10:27:29;;;;;;;12.23;6.60;;;;;;;;;;5016148;28;20128;-63
2024/03/31 10:29:56;;;;;;;11.05;5.90;;;;;;;;;;5017859;28;20117;-63
2024/03/31 10:32:22;;;;;;;12.70;6.20;;;;;;;;;;5024364;28;20033;-64
2024/03/31 10:34:48;;;;;;;13.43;6.20;;;;;;;;;;5014942;28;20347;-64
2024/03/31 10:37:14;;;;;;;9.48;4.97;;;;;;;;;;5018617;28;20451;-63
2024/03/31 10:39:43;;;;;;;10.02;5.40;;;;;;;;;;5022527;28;20036;-63
2024/03/31 10:42:09;;;;;;;10.50;5.78;;;;;;;;;;5019940;28;20048;-63
2024/03/31 10:44:35;;;;;;;9.90;5.15;;;;;;;;;;5019998;28;20028;-63
2024/03/31 10:47:02;;;;;;;10.90;5.28;;;;;;;;;;5011821;28;20034;-63
2024/03/31 10:49:46;;;;;;;12.43;6.13;;;;;;;;;;5021762;28;20077;-63
2024/03/31 10:52:18;;;;;;;11.38;5.82;;;;;;;;;;5021979;28;20049;-64
2024/03/31 10:54:44;;;;;;;10.18;5.75;;;;;;;;;;5023887;28;20037;-64
2024/03/31 10:57:11;;;;;;;10.43;4.88;;;;;;;;;;5018097;28;20417;-63
2024/03/31 10:59:38;;;;;;;9.40;5.00;;;;;;;;;;5019408;28;20021;-63
2024/03/31 11:02:11;;;;;;;7.63;3.78;;;;;;;;;;5022307;28;20073;-64
2024/03/31 11:04:37;;;;;;;9.07;4.57;;;;;;;;;;5020143;28;20048;-64
2024/03/31 11:07:04;;;;;;;12.07;5.28;;;;;;;;;;5018032;28;20413;-64
2024/03/31 11:09:30;;;;;;;11.05;5.30;;;;;;;;;;5012317;28;20588;-64
2024/03/31 11:11:56;;;;;;;10.45;5.82;;;;;;;;;;5013502;28;20141;-63
2024/03/31 11:14:25;;;;;;;9.73;5.05;;;;;;;;;;5021855;28;20133;-63
2024/03/31 11:16:52;;;;;;;8.77;5.38;;;;;;;;;;5035156;28;20053;-64
2024/03/31 11:19:21;;;;;;;9.27;4.78;;;;;;;;;;5010028;28;20125;-63
2024/03/31 11:21:47;;;;;;;9.93;5.18;;;;;;;;;;5017516;28;20084;-64
2024/03/31 11:24:13;;;;;;;10.35;5.45;;;;;;;;;;5021252;28;20568;-64
2024/03/31 11:26:40;;;;;;;9.43;4.50;;;;;;;;;;5018856;28;20135;-65
2024/03/31 11:29:06;;;;;;;11.77;5.82;;;;;;;;;;5014065;28;20810;-64
2024/03/31 11:31:32;;;;;;;9.95;5.15;;;;;;;;;;5024337;28;20128;-64
2024/03/31 11:33:58;;;;;;;9.98;5.13;;;;;;;;;;5011279;28;20402;-63
2024/03/31 11:36:24;;;;;;;10.70;5.03;;;;;;;;;;5023151;28;20021;-64
2024/03/31 11:38:50;;;;;;;9.90;5.15;;;;;;;;;;5019491;28;20399;-63
2024/03/31 11:41:16;;;;;;;9.70;5.25;;;;;;;;;;5015993;28;20045;-64
2024/03/31 11:43:42;;;;;;;10.88;5.18;;;;;;;;;;5015554;28;20025;-63
2024/03/31 11:46:09;;;;;;;11.73;5.63;;;;;;;;;;5015288;28;20025;-64
2024/03/31 11:48:35;;;;;;;10.80;5.57;;;;;;;;;;5022829;28;20535;-63
2024/03/31 11:51:01;;;;;;;11.02;6.15;;;;;;;;;;5018998;28;20056;-65
2024/03/31 11:53:27;;;;;;;11.63;5.65;;;;;;;;;;5018272;28;20040;-64
2024/03/31 11:55:53;;;;;;;11.13;5.57;;;;;;;;;;5016834;28;20311;-64
2024/03/31 11:58:19;;;;;;;9.35;4.97;;;;;;;;;;5022236;28;20025;-64
2024/03/31 12:00:54;;;;;;;9.60;5.05;;;;;;;;;;5024831;28;20092;-63
2024/03/31 12:03:19;;;;;;;11.15;5.85;;;;;;;;;;5020052;28;20370;-63
2024/03/31 12:05:49;;;;;;;10.40;5.50;;;;;;;;;;5025630;28;20036;-64
2024/03/31 12:08:19;;;;;;;8.95;4.43;;;;;;;;;;5020026;28;20151;-64
2024/03/31 12:10:48;;;;;;;8.15;4.45;;;;;;;;;;5013492;28;20126;-64
2024/03/31 12:13:14;;;;;;;9.40;5.18;;;;;;;;;;5024440;28;20065;-64
2024/03/31 12:15:41;;;;;;;10.35;5.20;;;;;;;;;;5022424;28;20080;-65
2024/03/31 12:18:08;;;;;;;7.43;4.22;;;;;;;;;;5018318;28;20082;-65
2024/03/31 12:20:34;;;;;;;7.63;3.85;;;;;;;;;;5014508;28;20436;-64
2024/03/31 12:23:00;;;;;;;7.80;3.90;;;;;;;;;;5014899;28;20056;-64
2024/03/31 12:25:27;;;;;;;7.53;3.90;;;;;;;;;;5011757;28;20053;-65
2024/03/31 12:27:53;;;;;;;7.72;3.75;;;;;;;;;;5017080;28;20169;-64
2024/03/31 12:30:19;;;;;;;8.07;3.80;;;;;;;;;;5026358;28;20506;-64
2024/03/31 12:32:45;;;;;;;6.60;3.45;;;;;;;;;;5022357;28;20044;-64
2024/03/31 12:35:11;;;;;;;7.05;3.80;;;;;;;;;;5014564;28;20088;-64
2024/03/31 12:37:37;;;;;;;5.70;3.35;;;;;;;;;;5015800;28;20030;-64
2024/03/31 12:40:04;;;;;;;7.38;3.70;;;;;;;;;;5019480;28;20465;-65
2024/03/31 12:42:30;;;;;;;6.88;3.45;;;;;;;;;;5009429;28;20040;-65
2024/03/31 12:44:56;;;;;;;6.40;3.38;;;;;;;;;;5015540;28;20052;-64
2024/03/31 12:47:22;;;;;;;6.25;2.80;;;;;;;;;;5022973;28;20056;-64
2024/03/31 12:49:49;;;;;;;5.63;3.03;;;;;;;;;;5014464;28;20056;-67
2024/03/31 12:52:15;;;;;;;6.05;2.72;;;;;;;;;;5020312;28;20391;-65
2024/03/31 12:54:40;;;;;;;6.30;3.10;;;;;;;;;;5016401;28;20095;-64
2024/03/31 12:57:06;;;;;;;4.75;2.63;;;;;;;;;;5010684;28;20104;-65
2024/03/31 12:59:36;;;;;;;5.18;2.33;;;;;;;;;;5018040;28;20125;-64
2024/03/31 13:02:02;;;;;;;5.70;2.85;;;;;;;;;;5020485;28;20453;-64
2024/03/31 13:04:28;;;;;;;4.10;2.05;;;;;;;;;;5020270;28;20430;-64
2024/03/31 13:06:54;;;;;;;6.03;2.45;;;;;;;;;;5008336;28;20030;-64
2024/03/31 13:09:20;;;;;;;5.05;2.33;;;;;;;;;;5009967;28;20066;-65
2024/03/31 13:11:47;;;;;;;4.15;2.30;;;;;;;;;;5008828;28;20104;-65
2024/03/31 13:14:13;;;;;;;4.95;2.58;;;;;;;;;;5015409;28;20037;-64
2024/03/31 13:16:39;;;;;;;3.65;1.77;;;;;;;;;;5016615;28;20081;-65
2024/03/31 13:19:05;;;;;;;3.47;1.05;;;;;;;;;;5009324;28;20058;-65
2024/03/31 13:21:31;;;;;;;2.85;1.45;;;;;;;;;;5014689;28;20030;-65
2024/03/31 13:23:57;;;;;;;3.25;1.40;;;;;;;;;;5014143;28;20097;-66
2024/03/31 13:26:23;;;;;;;2.30;1.10;;;;;;;;;;5009337;28;20045;-65
2024/03/31 13:28:49;;;;;;;3.10;1.20;;;;;;;;;;5007416;28;20026;-64
2024/03/31 13:31:15;;;;;;;2.15;1.02;;;;;;;;;;5015076;28;20107;-64
2024/03/31 13:33:41;;;;;;;1.48;0.70;;;;;;;;;;5015233;28;20026;-66
2024/03/31 13:36:07;;;;;;;2.42;1.20;;;;;;;;;;5016213;28;20030;-64
2024/03/31 13:38:33;;;;;;;2.97;1.40;;;;;;;;;;5013402;28;20061;-64
2024/03/31 13:40:59;;;;;;;1.55;1.00;;;;;;;;;;5013575;28;20044;-64
2024/03/31 13:43:25;;;;;;;3.42;1.35;;;;;;;;;;5013922;28;20034;-64
2024/03/31 13:45:51;;;;;;;3.28;1.35;;;;;;;;;;5010402;28;20068;-66
2024/03/31 13:48:17;;;;;;;2.90;1.48;;;;;;;;;;5007598;28;20101;-65
2024/03/31 13:50:43;;;;;;;4.90;1.45;;;;;;;;;;5008307;28;20030;-65
2024/03/31 13:53:09;;;;;;;2.28;1.10;;;;;;;;;;5013858;28;20033;-65
2024/03/31 13:55:35;;;;;;;2.58;1.15;;;;;;;;;;5012235;28;20022;-64
2024/03/31 13:58:01;;;;;;;3.15;1.17;;;;;;;;;;5010270;28;20121;-64
2024/03/31 14:00:27;;;;;;;2.65;1.50;;;;;;;;;;5025279;28;20496;-64
2024/03/31 14:02:54;;;;;;;3.65;1.45;;;;;;;;;;5020560;28;20125;-66
2024/03/31 14:05:19;;;;;;;2.72;1.40;;;;;;;;;;5023760;28;20028;-65
2024/03/31 14:07:45;;;;;;;3.38;1.42;;;;;;;;;;5020140;28;20030;-65
2024/03/31 14:10:12;;;;;;;2.92;1.27;;;;;;;;;;5017264;28;20026;-65
2024/03/31 14:12:40;;;;;;;2.83;1.52;;;;;;;;;;5024625;28;20457;-64